createdAt,value
2017-07-05T00:00:36.006Z,1014.32
2017-07-05T00:01:46.268Z,1014.34
2017-07-05T00:02:56.537Z,1014.31
2017-07-05T00:04:06.497Z,1014.32
2017-07-05T00:05:17.038Z,1014.32
2017-07-05T00:06:27.001Z,1014.32
2017-07-05T00:07:37.254Z,1014.33
2017-07-05T00:08:46.886Z,1014.34
2017-07-05T00:09:56.833Z,1014.31
2017-07-05T00:11:07.344Z,1014.36
2017-07-05T00:12:16.987Z,1014.27
2017-07-05T00:13:26.935Z,1014.29
2017-07-05T00:14:36.903Z,1014.28
2017-07-05T00:15:46.849Z,1014.27
2017-07-05T00:16:57.055Z,1014.29
2017-07-05T00:18:06.994Z,1014.26
2017-07-05T00:19:16.947Z,1014.28
2017-07-05T00:20:27.204Z,1014.29
2017-07-05T00:21:37.467Z,1014.3
2017-07-05T00:22:47.962Z,1014.33
2017-07-05T00:23:58.217Z,1014.33
2017-07-05T00:25:08.481Z,1014.32
2017-07-05T00:26:18.762Z,1014.35
2017-07-05T00:27:28.085Z,1014.33
2017-07-05T00:28:38.276Z,1014.31
2017-07-05T00:29:47.935Z,1014.32
2017-07-05T00:30:57.900Z,1014.33
2017-07-05T00:32:08.184Z,1014.26
2017-07-05T00:33:18.464Z,1014.26
2017-07-05T00:34:29.045Z,1014.24
2017-07-05T00:35:39.308Z,1014.24
2017-07-05T00:36:48.946Z,1014.25
2017-07-05T00:37:58.904Z,1014.25
2017-07-05T00:39:09.170Z,1014.28
2017-07-05T00:40:19.699Z,1014.27
2017-07-05T00:41:29.967Z,1014.28
2017-07-05T00:42:39.613Z,1014.26
2017-07-05T00:43:49.897Z,1014.25
2017-07-05T00:45:00.155Z,1014.2
2017-07-05T00:46:10.345Z,1014.22
2017-07-05T00:47:20.606Z,1014.21
2017-07-05T00:48:30.857Z,1014.17
2017-07-05T00:49:41.119Z,1014.14
2017-07-05T00:50:50.762Z,1014.1
2017-07-05T00:52:01.269Z,1014.07
2017-07-05T00:53:11.529Z,1014
2017-07-05T00:54:21.797Z,1014.03
2017-07-05T00:55:32.086Z,1014.06
2017-07-05T00:56:42.051Z,1014.08
2017-07-05T01:02:39.103Z,1014.06
2017-07-05T01:03:49.096Z,1014.01
2017-07-05T01:04:58.721Z,1014.03
2017-07-05T01:06:08.350Z,1014.02
2017-07-05T01:07:18.306Z,1014.02
2017-07-05T01:08:28.818Z,1013.97
2017-07-05T01:09:38.769Z,1013.96
2017-07-05T01:10:49.066Z,1013.97
2017-07-05T01:11:59.009Z,1013.99
2017-07-05T01:13:09.274Z,1013.95
2017-07-05T01:14:19.801Z,1013.95
2017-07-05T01:15:30.072Z,1013.9
2017-07-05T01:16:40.335Z,1013.88
2017-07-05T01:17:50.582Z,1013.88
2017-07-05T01:19:00.844Z,1013.89
2017-07-05T01:20:11.038Z,1013.85
2017-07-05T01:21:20.977Z,1013.85
2017-07-05T01:22:30.916Z,1013.84
2017-07-05T01:23:40.551Z,1013.84
2017-07-05T01:24:50.811Z,1013.79
2017-07-05T01:26:01.020Z,1013.8
2017-07-05T01:27:10.342Z,1013.78
2017-07-05T01:28:20.595Z,1013.77
2017-07-05T01:29:30.869Z,1013.78
2017-07-05T01:30:40.520Z,1013.83
2017-07-05T01:31:51.038Z,1013.82
2017-07-05T01:33:00.991Z,1013.87
2017-07-05T01:34:10.934Z,1013.84
2017-07-05T01:35:21.186Z,1013.84
2017-07-05T01:36:31.450Z,1013.87
2017-07-05T01:37:42.030Z,1013.86
2017-07-05T01:38:52.311Z,1013.86
2017-07-05T01:40:01.951Z,1013.88
2017-07-05T01:41:12.205Z,1013.83
2017-07-05T01:42:22.163Z,1013.84
2017-07-05T01:43:32.052Z,1013.85
2017-07-05T01:44:41.999Z,1013.87
2017-07-05T01:45:52.466Z,1013.84
2017-07-05T01:47:02.116Z,1013.89
2017-07-05T01:48:12.395Z,1013.83
2017-07-05T01:49:22.919Z,1013.85
2017-07-05T01:50:33.190Z,1013.83
2017-07-05T01:51:43.167Z,1013.86
2017-07-05T01:52:53.435Z,1013.85
2017-07-05T01:54:03.699Z,1013.83
2017-07-05T01:55:13.910Z,1013.81
2017-07-05T01:56:24.167Z,1013.88
2017-07-05T01:57:33.796Z,1013.86
2017-07-05T01:58:44.054Z,1013.89
2017-07-05T01:59:54.313Z,1013.86
2017-07-05T02:01:04.822Z,1013.9
2017-07-05T02:02:14.767Z,1013.89
2017-07-05T02:03:24.716Z,1013.89
2017-07-05T02:04:34.982Z,1013.93
2017-07-05T02:05:44.939Z,1013.91
2017-07-05T02:06:55.149Z,1013.92
2017-07-05T02:08:05.413Z,1013.86
2017-07-05T02:09:15.365Z,1013.88
2017-07-05T02:10:25.312Z,1013.86
2017-07-05T02:11:35.299Z,1013.8
2017-07-05T02:12:44.863Z,1013.77
2017-07-05T02:13:54.494Z,1013.74
2017-07-05T02:15:04.773Z,1013.73
2017-07-05T02:16:15.042Z,1013.77
2017-07-05T02:17:25.009Z,1013.74
2017-07-05T02:18:34.883Z,1013.76
2017-07-05T02:19:45.146Z,1013.72
2017-07-05T02:20:55.425Z,1013.7
2017-07-05T02:22:05.921Z,1013.69
2017-07-05T02:23:15.860Z,1013.69
2017-07-05T02:24:26.056Z,1013.7
2017-07-05T02:25:36.313Z,1013.69
2017-07-05T02:26:46.582Z,1013.68
2017-07-05T02:27:56.845Z,1013.69
2017-07-05T02:29:07.116Z,1013.66
2017-07-05T02:30:17.645Z,1013.62
2017-07-05T02:31:27.589Z,1013.64
2017-07-05T02:32:37.849Z,1013.57
2017-07-05T02:33:47.814Z,1013.54
2017-07-05T02:34:57.744Z,1013.45
2017-07-05T02:36:07.632Z,1013.45
2017-07-05T02:37:17.873Z,1013.47
2017-07-05T02:38:28.169Z,1013.48
2017-07-05T02:39:38.444Z,1013.48
2017-07-05T02:40:48.071Z,1013.49
2017-07-05T02:41:58.644Z,1013.51
2017-07-05T02:43:08.585Z,1013.57
2017-07-05T02:44:18.863Z,1013.54
2017-07-05T02:45:28.804Z,1013.58
2017-07-05T02:46:38.488Z,1013.6
2017-07-05T02:47:48.989Z,1013.64
2017-07-05T02:48:58.300Z,1013.63
2017-07-05T02:50:08.558Z,1013.6
2017-07-05T02:51:18.822Z,1013.59
2017-07-05T02:52:29.081Z,1013.6
2017-07-05T02:53:38.953Z,1013.63
2017-07-05T02:54:49.215Z,1013.64
2017-07-05T02:55:59.504Z,1013.63
2017-07-05T02:57:09.465Z,1013.59
2017-07-05T02:58:19.728Z,1013.61
2017-07-05T02:59:29.935Z,1013.55
2017-07-05T03:00:40.209Z,1013.52
2017-07-05T03:01:50.176Z,1013.53
2017-07-05T03:02:59.816Z,1013.53
2017-07-05T03:04:09.767Z,1013.54
2017-07-05T03:05:20.029Z,1013.57
2017-07-05T03:06:29.347Z,1013.57
2017-07-05T03:07:39.613Z,1013.56
2017-07-05T03:08:49.874Z,1013.53
2017-07-05T03:09:59.832Z,1013.45
2017-07-05T03:11:10.036Z,1013.46
2017-07-05T03:12:20.310Z,1013.43
2017-07-05T03:13:30.258Z,1013.45
2017-07-05T03:14:40.527Z,1013.47
2017-07-05T03:15:50.798Z,1013.47
2017-07-05T03:17:01.005Z,1013.45
2017-07-05T03:18:11.274Z,1013.52
2017-07-05T03:19:21.546Z,1013.49
2017-07-05T03:20:31.810Z,1013.42
2017-07-05T03:21:41.750Z,1013.42
2017-07-05T03:22:52.256Z,1013.49
2017-07-05T03:24:01.898Z,1013.49
2017-07-05T03:25:11.542Z,1013.54
2017-07-05T03:26:21.803Z,1013.54
2017-07-05T03:27:31.748Z,1013.58
2017-07-05T03:28:42.265Z,1013.58
2017-07-05T03:29:52.551Z,1013.59
2017-07-05T03:31:01.868Z,1013.54
2017-07-05T03:32:12.127Z,1013.54
2017-07-05T03:33:22.086Z,1013.52
2017-07-05T03:34:32.281Z,1013.56
2017-07-05T03:35:42.221Z,1013.53
2017-07-05T03:36:51.839Z,1013.6
2017-07-05T03:38:02.115Z,1013.54
2017-07-05T03:39:12.375Z,1013.52
2017-07-05T03:40:22.897Z,1013.49
2017-07-05T03:41:33.165Z,1013.49
2017-07-05T03:42:43.461Z,1013.51
2017-07-05T03:43:52.768Z,1013.48
2017-07-05T03:45:02.723Z,1013.48
2017-07-05T03:46:12.919Z,1013.48
2017-07-05T03:47:22.858Z,1013.46
2017-07-05T03:48:32.827Z,1013.49
2017-07-05T03:49:42.786Z,1013.46
2017-07-05T03:50:53.033Z,1013.5
2017-07-05T03:52:02.912Z,1013.46
2017-07-05T03:53:12.855Z,1013.46
2017-07-05T03:54:22.793Z,1013.47
2017-07-05T03:55:32.742Z,1013.41
2017-07-05T03:56:42.696Z,1013.45
2017-07-05T03:57:52.935Z,1013.44
2017-07-05T03:59:02.896Z,1013.42
2017-07-05T04:00:12.857Z,1013.43
2017-07-05T04:01:22.486Z,1013.49
2017-07-05T04:02:32.442Z,1013.54
2017-07-05T04:03:42.062Z,1013.49
2017-07-05T04:04:51.998Z,1013.54
2017-07-05T04:06:02.272Z,1013.54
2017-07-05T04:07:12.521Z,1013.55
2017-07-05T04:08:22.795Z,1013.52
2017-07-05T04:09:33.010Z,1013.54
2017-07-05T04:10:42.958Z,1013.45
2017-07-05T04:11:53.228Z,1013.43
2017-07-05T04:13:02.857Z,1013.43
2017-07-05T04:14:12.799Z,1013.4
2017-07-05T04:15:23.308Z,1013.39
2017-07-05T04:16:33.590Z,1013.39
2017-07-05T04:17:43.862Z,1013.41
2017-07-05T04:18:53.812Z,1013.43
2017-07-05T04:20:03.760Z,1013.39
2017-07-05T04:21:13.642Z,1013.36
2017-07-05T04:22:23.269Z,1013.4
2017-07-05T04:23:33.537Z,1013.37
2017-07-05T04:24:43.164Z,1013.36
2017-07-05T04:25:52.786Z,1013.34
2017-07-05T04:27:02.730Z,1013.36
2017-07-05T04:28:12.983Z,1013.34
2017-07-05T04:29:22.928Z,1013.37
2017-07-05T04:30:32.887Z,1013.35
2017-07-05T04:31:42.849Z,1013.3
2017-07-05T04:32:53.356Z,1013.35
2017-07-05T04:34:03.302Z,1013.37
2017-07-05T04:35:13.264Z,1013.44
2017-07-05T04:36:23.214Z,1013.43
2017-07-05T04:37:33.494Z,1013.48
2017-07-05T04:38:44.021Z,1013.48
2017-07-05T04:39:54.272Z,1013.51
2017-07-05T04:41:04.541Z,1013.44
2017-07-05T04:42:13.867Z,1013.43
2017-07-05T04:43:24.141Z,1013.42
2017-07-05T04:44:34.700Z,1013.44
2017-07-05T04:45:44.656Z,1013.41
2017-07-05T04:46:54.598Z,1013.43
2017-07-05T04:48:04.541Z,1013.44
2017-07-05T04:49:14.505Z,1013.45
2017-07-05T04:50:25.017Z,1013.48
2017-07-05T04:51:34.954Z,1013.43
2017-07-05T04:52:45.220Z,1013.45
2017-07-05T04:53:55.151Z,1013.46
2017-07-05T04:55:05.410Z,1013.46
2017-07-05T04:56:15.292Z,1013.52
2017-07-05T04:57:25.227Z,1013.51
2017-07-05T04:58:35.495Z,1013.52
2017-07-05T04:59:45.772Z,1013.54
2017-07-05T05:00:56.054Z,1013.52
2017-07-05T05:02:06.260Z,1013.5
2017-07-05T05:03:16.550Z,1013.5
2017-07-05T05:04:26.236Z,1013.48
2017-07-05T05:05:36.515Z,1013.5
2017-07-05T05:06:46.790Z,1013.5
2017-07-05T05:07:56.996Z,1013.49
2017-07-05T05:09:06.984Z,1013.5
2017-07-05T05:10:16.954Z,1013.53
2017-07-05T05:11:27.222Z,1013.48
2017-07-05T05:12:37.501Z,1013.49
2017-07-05T05:13:48.025Z,1013.52
2017-07-05T05:14:58.285Z,1013.53
2017-07-05T05:16:08.547Z,1013.57
2017-07-05T05:17:18.813Z,1013.62
2017-07-05T05:18:29.080Z,1013.68
2017-07-05T05:19:39.272Z,1013.69
2017-07-05T05:20:49.542Z,1013.68
2017-07-05T05:21:59.811Z,1013.64
2017-07-05T05:23:09.760Z,1013.69
2017-07-05T05:24:20.010Z,1013.71
2017-07-05T05:25:29.885Z,1013.72
2017-07-05T05:26:39.831Z,1013.71
2017-07-05T05:27:50.101Z,1013.68
2017-07-05T05:29:00.379Z,1013.71
2017-07-05T05:30:10.663Z,1013.78
2017-07-05T05:31:21.172Z,1013.8
2017-07-05T05:32:31.129Z,1013.82
2017-07-05T05:33:41.389Z,1013.81
2017-07-05T05:34:50.721Z,1013.83
2017-07-05T05:36:00.668Z,1013.81
2017-07-05T05:37:10.559Z,1013.85
2017-07-05T05:38:20.507Z,1013.85
2017-07-05T05:39:30.773Z,1013.84
2017-07-05T05:40:40.708Z,1013.8
2017-07-05T05:41:50.670Z,1013.79
2017-07-05T05:43:01.202Z,1013.84
2017-07-05T05:44:11.474Z,1013.79
2017-07-05T05:45:21.102Z,1013.74
2017-07-05T05:46:31.379Z,1013.71
2017-07-05T05:47:41.661Z,1013.76
2017-07-05T05:48:52.180Z,1013.76
2017-07-05T05:50:02.130Z,1013.76
2017-07-05T05:51:12.072Z,1013.76
2017-07-05T05:52:22.023Z,1013.78
2017-07-05T05:53:31.660Z,1013.83
2017-07-05T05:54:42.186Z,1013.82
2017-07-05T05:55:52.515Z,1013.82
2017-07-05T05:57:02.146Z,1013.84
2017-07-05T05:58:12.411Z,1013.85
2017-07-05T05:59:22.056Z,1013.84
2017-07-05T06:00:31.959Z,1013.87
2017-07-05T06:01:41.918Z,1013.88
2017-07-05T06:02:51.927Z,1013.92
2017-07-05T06:04:02.199Z,1013.97
2017-07-05T06:05:12.471Z,1014.01
2017-07-05T06:06:22.997Z,1014.04
2017-07-05T06:07:33.257Z,1014.09
2017-07-05T06:08:43.213Z,1014.13
2017-07-05T06:09:53.497Z,1014.15
2017-07-05T06:11:03.458Z,1014.14
2017-07-05T06:12:13.978Z,1014.09
2017-07-05T06:13:23.942Z,1014.15
2017-07-05T06:14:34.193Z,1014.12
2017-07-05T06:15:44.450Z,1014.08
2017-07-05T06:16:54.099Z,1014.04
2017-07-05T06:18:03.990Z,1014.08
2017-07-05T06:19:14.304Z,1014.1
2017-07-05T06:20:23.937Z,1014.09
2017-07-05T06:21:34.226Z,1014.04
2017-07-05T06:22:43.846Z,1014.09
2017-07-05T06:23:54.072Z,1014.14
2017-07-05T06:25:03.720Z,1014.14
2017-07-05T06:26:13.356Z,1014.19
2017-07-05T06:27:23.649Z,1014.15
2017-07-05T06:28:33.303Z,1014.17
2017-07-05T06:29:43.499Z,1014.19
2017-07-05T06:30:53.770Z,1014.15
2017-07-05T06:32:03.422Z,1014.17
2017-07-05T06:33:13.685Z,1014.2
2017-07-05T06:34:23.963Z,1014.18
2017-07-05T06:35:49.145Z,1014.18
2017-07-05T06:36:58.777Z,1014.2
2017-07-05T06:38:09.068Z,1014.21
2017-07-05T06:39:18.413Z,1014.26
2017-07-05T06:40:27.979Z,1014.21
2017-07-05T06:41:38.255Z,1014.21
2017-07-05T06:42:48.212Z,1014.25
2017-07-05T06:43:58.496Z,1014.27
2017-07-05T06:45:08.749Z,1014.3
2017-07-05T06:46:19.452Z,1014.24
2017-07-05T06:47:29.723Z,1014.23
2017-07-05T06:48:40.185Z,1014.2
2017-07-05T06:49:50.145Z,1014.23
2017-07-05T06:51:00.092Z,1014.22
2017-07-05T06:52:09.990Z,1014.2
2017-07-05T06:53:19.634Z,1014.17
2017-07-05T06:54:29.899Z,1014.17
2017-07-05T06:55:39.858Z,1014.22
2017-07-05T06:56:49.825Z,1014.21
2017-07-05T06:58:00.415Z,1014.24
2017-07-05T06:59:10.930Z,1014.23
2017-07-05T07:00:20.573Z,1014.28
2017-07-05T07:01:30.553Z,1014.31
2017-07-05T07:02:39.876Z,1014.3
2017-07-05T07:03:50.403Z,1014.39
2017-07-05T07:04:59.815Z,1014.39
2017-07-05T07:06:09.769Z,1014.38
2017-07-05T07:07:20.029Z,1014.37
2017-07-05T07:08:29.968Z,1014.38
2017-07-05T07:09:40.495Z,1014.38
2017-07-05T07:10:50.459Z,1014.38
2017-07-05T07:12:00.407Z,1014.38
2017-07-05T07:13:10.678Z,1014.37
2017-07-05T07:14:20.948Z,1014.38
2017-07-05T07:15:30.826Z,1014.38
2017-07-05T07:16:40.772Z,1014.33
2017-07-05T07:17:51.047Z,1014.37
2017-07-05T07:19:01.022Z,1014.38
2017-07-05T07:20:10.653Z,1014.36
2017-07-05T07:21:21.161Z,1014.36
2017-07-05T07:22:31.125Z,1014.33
2017-07-05T07:23:40.774Z,1014.33
2017-07-05T07:24:51.032Z,1014.35
2017-07-05T07:26:00.672Z,1014.37
2017-07-05T07:27:11.180Z,1014.37
2017-07-05T07:28:21.152Z,1014.39
2017-07-05T07:29:31.123Z,1014.35
2017-07-05T07:30:41.383Z,1014.41
2017-07-05T07:31:51.314Z,1014.43
2017-07-05T07:33:01.537Z,1014.37
2017-07-05T07:34:11.188Z,1014.38
2017-07-05T07:35:21.508Z,1014.37
2017-07-05T07:36:31.777Z,1014.34
2017-07-05T07:37:41.719Z,1014.34
2017-07-05T07:38:51.926Z,1014.33
2017-07-05T07:40:01.555Z,1014.35
2017-07-05T07:41:11.833Z,1014.37
2017-07-05T07:42:22.125Z,1014.37
2017-07-05T07:43:32.114Z,1014.34
2017-07-05T07:44:42.050Z,1014.35
2017-07-05T07:45:52.020Z,1014.37
2017-07-05T07:47:01.991Z,1014.38
2017-07-05T07:48:11.629Z,1014.34
2017-07-05T07:49:21.914Z,1014.35
2017-07-05T07:50:32.439Z,1014.3
2017-07-05T07:51:42.404Z,1014.31
2017-07-05T07:52:52.695Z,1014.28
2017-07-05T07:54:02.971Z,1014.3
2017-07-05T07:55:13.268Z,1014.27
2017-07-05T07:56:23.793Z,1014.28
2017-07-05T07:57:34.065Z,1014.24
2017-07-05T07:58:44.347Z,1014.25
2017-07-05T07:59:54.624Z,1014.28
2017-07-05T08:01:04.614Z,1014.33
2017-07-05T08:02:15.282Z,1014.31
2017-07-05T08:03:25.470Z,1014.27
2017-07-05T08:04:35.107Z,1014.29
2017-07-05T08:05:45.361Z,1014.26
2017-07-05T08:06:55.645Z,1014.26
2017-07-05T08:08:04.897Z,1014.22
2017-07-05T08:09:14.866Z,1014.21
2017-07-05T08:10:24.819Z,1014.17
2017-07-05T08:11:35.098Z,1014.13
2017-07-05T08:12:45.395Z,1014.13
2017-07-05T08:13:55.772Z,1014.14
2017-07-05T08:15:05.994Z,1014.16
2017-07-05T08:16:15.965Z,1014.18
2017-07-05T08:17:25.910Z,1014.21
2017-07-05T08:18:36.177Z,1014.19
2017-07-05T08:19:46.718Z,1014.24
2017-07-05T08:20:57.048Z,1014.23
2017-07-05T08:22:07.324Z,1014.16
2017-07-05T08:23:17.601Z,1014.19
2017-07-05T08:24:27.865Z,1014.18
2017-07-05T08:25:38.065Z,1014.14
2017-07-05T08:26:47.750Z,1014.17
2017-07-05T08:27:57.826Z,1014.16
2017-07-05T08:29:08.119Z,1014.18
2017-07-05T08:30:18.116Z,1014.19
2017-07-05T08:31:29.086Z,1014.19
2017-07-05T08:32:38.088Z,1014.22
2017-07-05T08:33:48.371Z,1014.18
2017-07-05T08:34:58.702Z,1014.17
2017-07-05T08:36:09.007Z,1014.21
2017-07-05T08:37:19.240Z,1014.22
2017-07-05T08:38:29.516Z,1014.2
2017-07-05T08:39:39.788Z,1014.21
2017-07-05T08:40:50.065Z,1014.21
2017-07-05T08:42:00.340Z,1014.18
2017-07-05T08:43:10.870Z,1014.18
2017-07-05T08:44:20.840Z,1014.16
2017-07-05T08:45:31.129Z,1014.2
2017-07-05T08:46:41.450Z,1014.2
2017-07-05T08:47:51.418Z,1014.22
2017-07-05T08:49:01.952Z,1014.22
2017-07-05T08:50:12.229Z,1014.22
2017-07-05T08:51:22.536Z,1014.21
2017-07-05T08:52:32.550Z,1014.23
2017-07-05T08:53:42.539Z,1014.21
2017-07-05T08:54:53.081Z,1014.28
2017-07-05T08:56:03.046Z,1014.3
2017-07-05T08:57:13.022Z,1014.3
2017-07-05T08:58:23.018Z,1014.33
2017-07-05T08:59:32.965Z,1014.37
2017-07-05T09:00:43.218Z,1014.32
2017-07-05T09:01:53.211Z,1014.32
2017-07-05T09:03:03.203Z,1014.29
2017-07-05T09:04:13.172Z,1014.27
2017-07-05T09:05:23.465Z,1014.3
2017-07-05T09:06:33.758Z,1014.27
2017-07-05T09:07:43.401Z,1014.31
2017-07-05T09:08:53.356Z,1014.23
2017-07-05T09:10:03.318Z,1014.24
2017-07-05T09:11:13.600Z,1014.31
2017-07-05T09:12:23.569Z,1014.32
2017-07-05T09:13:33.226Z,1014.31
2017-07-05T09:14:43.506Z,1014.36
2017-07-05T09:15:53.790Z,1014.33
2017-07-05T09:17:04.063Z,1014.33
2017-07-05T09:18:14.334Z,1014.36
2017-07-05T09:19:24.299Z,1014.37
2017-07-05T09:20:34.274Z,1014.35
2017-07-05T09:21:44.570Z,1014.39
2017-07-05T09:22:55.114Z,1014.33
2017-07-05T09:24:05.080Z,1014.28
2017-07-05T09:25:15.362Z,1014.25
2017-07-05T09:26:25.351Z,1014.27
2017-07-05T09:27:35.660Z,1014.2
2017-07-05T09:28:45.884Z,1014.24
2017-07-05T09:29:55.547Z,1014.22
2017-07-05T09:31:05.529Z,1014.24
2017-07-05T09:32:15.825Z,1014.22
2017-07-05T09:33:25.792Z,1014.27
2017-07-05T09:34:36.078Z,1014.24
2017-07-05T09:35:46.027Z,1014.24
2017-07-05T09:36:56.319Z,1014.27
2017-07-05T09:38:06.595Z,1014.25
2017-07-05T09:39:16.879Z,1014.3
2017-07-05T09:40:27.100Z,1014.33
2017-07-05T09:41:37.379Z,1014.33
2017-07-05T09:42:47.360Z,1014.3
2017-07-05T09:43:57.649Z,1014.28
2017-07-05T09:45:07.618Z,1014.26
2017-07-05T09:46:18.153Z,1014.24
2017-07-05T09:47:28.158Z,1014.26
2017-07-05T09:48:38.448Z,1014.32
2017-07-05T09:49:48.754Z,1014.29
2017-07-05T09:50:58.727Z,1014.29
2017-07-05T09:52:08.938Z,1014.35
2017-07-05T09:53:18.899Z,1014.31
2017-07-05T09:54:28.896Z,1014.34
2017-07-05T09:55:38.878Z,1014.36
2017-07-05T09:56:49.172Z,1014.35
2017-07-05T09:57:59.371Z,1014.31
2017-07-05T09:59:09.339Z,1014.34
2017-07-05T10:00:19.634Z,1014.32
2017-07-05T10:01:29.686Z,1014.37
2017-07-05T10:02:39.647Z,1014.39
2017-07-05T10:03:49.868Z,1014.33
2017-07-05T10:05:00.162Z,1014.3
2017-07-05T10:06:10.466Z,1014.26
2017-07-05T10:07:20.751Z,1014.23
2017-07-05T10:08:31.055Z,1014.21
2017-07-05T10:09:41.271Z,1014.13
2017-07-05T10:10:51.261Z,1014.21
2017-07-05T10:12:01.231Z,1014.18
2017-07-05T10:13:11.556Z,1014.28
2017-07-05T10:14:21.536Z,1014.23
2017-07-05T10:15:31.752Z,1014.26
2017-07-05T10:16:41.744Z,1014.22
2017-07-05T10:17:51.417Z,1014.19
2017-07-05T10:19:01.747Z,1014.15
2017-07-05T10:20:11.724Z,1014.2
2017-07-05T10:21:22.265Z,1014.2
2017-07-05T10:22:32.222Z,1014.2
2017-07-05T10:23:41.555Z,1014.18
2017-07-05T10:24:51.525Z,1014.22
2017-07-05T10:26:01.816Z,1014.2
2017-07-05T10:27:12.085Z,1014.25
2017-07-05T10:28:22.358Z,1014.18
2017-07-05T10:29:32.632Z,1014.19
2017-07-05T10:30:42.631Z,1014.13
2017-07-05T10:31:52.601Z,1014.16
2017-07-05T10:33:02.490Z,1014.17
2017-07-05T10:34:12.457Z,1014.12
2017-07-05T10:35:21.786Z,1014.13
2017-07-05T10:36:32.066Z,1014.14
2017-07-05T10:37:42.365Z,1014.1
2017-07-05T10:38:52.627Z,1014.09
2017-07-05T10:40:02.920Z,1014.03
2017-07-05T10:41:12.572Z,1014.11
2017-07-05T10:42:22.210Z,1014.08
2017-07-05T10:43:31.857Z,1014.05
2017-07-05T10:44:42.378Z,1014.11
2017-07-05T10:45:52.353Z,1014.07
2017-07-05T10:47:02.646Z,1014.11
2017-07-05T10:48:12.307Z,1014.13
2017-07-05T10:49:22.604Z,1014.09
2017-07-05T10:50:33.160Z,1014.12
2017-07-05T10:51:43.451Z,1014.11
2017-07-05T10:52:53.424Z,1014.04
2017-07-05T10:54:03.068Z,1013.99
2017-07-05T10:55:13.359Z,1014.04
2017-07-05T10:56:23.940Z,1014.06
2017-07-05T10:57:33.261Z,1014.01
2017-07-05T10:58:43.789Z,1014.01
2017-07-05T10:59:53.775Z,1014.05
2017-07-05T11:01:03.751Z,1014.05
2017-07-05T11:02:14.312Z,1014.04
2017-07-05T11:03:24.639Z,1014.01
2017-07-05T11:04:34.938Z,1014
2017-07-05T11:05:45.214Z,1014.04
2017-07-05T11:06:54.895Z,1013.94
2017-07-05T11:08:05.195Z,1014.02
2017-07-05T11:09:15.467Z,1013.97
2017-07-05T11:10:25.732Z,1013.93
2017-07-05T11:11:35.705Z,1013.94
2017-07-05T11:12:45.992Z,1013.99
2017-07-05T11:13:56.570Z,1013.96
2017-07-05T11:15:06.527Z,1013.96
2017-07-05T11:16:16.813Z,1013.92
2017-07-05T11:17:26.814Z,1013.92
2017-07-05T11:18:37.166Z,1013.96
2017-07-05T11:19:47.400Z,1013.95
2017-07-05T11:20:57.377Z,1013.93
2017-07-05T11:22:07.653Z,1013.9
2017-07-05T11:23:17.649Z,1013.87
2017-07-05T11:24:26.997Z,1013.87
2017-07-05T11:25:37.608Z,1013.88
2017-07-05T11:26:47.752Z,1013.93
2017-07-05T11:27:57.728Z,1013.89
2017-07-05T11:29:08.023Z,1013.89
2017-07-05T11:30:17.997Z,1013.91
2017-07-05T11:31:28.253Z,1013.87
2017-07-05T11:32:38.561Z,1013.86
2017-07-05T11:33:48.872Z,1013.85
2017-07-05T11:34:58.516Z,1013.82
2017-07-05T11:36:08.826Z,1013.82
2017-07-05T11:37:19.052Z,1013.81
2017-07-05T11:38:29.361Z,1013.79
2017-07-05T11:39:39.013Z,1013.83
2017-07-05T11:40:49.529Z,1013.83
2017-07-05T11:41:59.515Z,1013.82
2017-07-05T11:43:09.732Z,1013.81
2017-07-05T11:44:20.057Z,1013.78
2017-07-05T11:45:30.126Z,1013.8
2017-07-05T11:46:40.404Z,1013.76
2017-07-05T11:47:50.687Z,1013.77
2017-07-05T11:49:01.162Z,1013.78
2017-07-05T11:50:11.173Z,1013.79
2017-07-05T11:51:21.461Z,1013.73
2017-07-05T11:52:31.751Z,1013.74
2017-07-05T11:53:41.723Z,1013.76
2017-07-05T11:54:52.260Z,1013.74
2017-07-05T11:56:02.565Z,1013.73
2017-07-05T11:57:12.527Z,1013.71
2017-07-05T11:58:22.514Z,1013.67
2017-07-05T11:59:32.495Z,1013.69
2017-07-05T12:00:43.079Z,1013.69
2017-07-05T12:01:53.060Z,1013.69
2017-07-05T12:03:03.349Z,1013.69
2017-07-05T12:04:13.034Z,1013.7
2017-07-05T12:05:23.312Z,1013.64
2017-07-05T12:06:33.225Z,1013.67
2017-07-05T12:07:43.506Z,1013.76
2017-07-05T12:08:53.837Z,1013.66
2017-07-05T12:10:03.813Z,1013.63
2017-07-05T12:11:14.097Z,1013.58
2017-07-05T12:12:24.326Z,1013.59
2017-07-05T12:13:33.017Z,1013.61
2017-07-05T12:14:43.026Z,1013.64
2017-07-05T12:15:53.320Z,1013.59
2017-07-05T12:17:03.599Z,1013.57
2017-07-05T12:18:14.118Z,1013.57
2017-07-05T12:19:24.378Z,1013.64
2017-07-05T12:20:34.346Z,1013.67
2017-07-05T12:21:44.010Z,1013.72
2017-07-05T12:22:53.977Z,1013.64
2017-07-05T12:24:04.508Z,1013.61
2017-07-05T12:25:14.778Z,1013.56
2017-07-05T12:26:24.736Z,1013.55
2017-07-05T12:27:35.013Z,1013.58
2017-07-05T12:28:44.980Z,1013.59
2017-07-05T12:29:54.608Z,1013.56
2017-07-05T12:31:04.906Z,1013.55
2017-07-05T12:32:15.185Z,1013.57
2017-07-05T12:33:25.156Z,1013.54
2017-07-05T12:34:35.120Z,1013.57
2017-07-05T12:35:45.339Z,1013.56
2017-07-05T12:36:55.307Z,1013.56
2017-07-05T12:38:05.580Z,1013.61
2017-07-05T12:39:15.566Z,1013.55
2017-07-05T12:40:25.530Z,1013.51
2017-07-05T12:41:36.127Z,1013.59
2017-07-05T12:42:45.779Z,1013.53
2017-07-05T12:43:55.434Z,1013.5
2017-07-05T12:45:05.395Z,1013.51
2017-07-05T12:46:15.367Z,1013.5
2017-07-05T12:47:25.578Z,1013.51
2017-07-05T12:48:35.537Z,1013.5
2017-07-05T12:49:45.499Z,1013.48
2017-07-05T12:50:55.813Z,1013.48
2017-07-05T12:52:06.100Z,1013.49
2017-07-05T12:53:16.660Z,1013.5
2017-07-05T12:54:26.648Z,1013.45
2017-07-05T12:55:36.943Z,1013.46
2017-07-05T12:56:47.255Z,1013.5
2017-07-05T12:57:57.554Z,1013.51
2017-07-05T12:59:08.113Z,1013.53
2017-07-05T13:00:18.397Z,1013.55
2017-07-05T13:01:28.041Z,1013.53
2017-07-05T13:02:38.001Z,1013.54
2017-07-05T13:03:47.320Z,1013.54
2017-07-05T13:04:57.559Z,1013.52
2017-07-05T13:06:07.532Z,1013.51
2017-07-05T13:07:17.206Z,1013.47
2017-07-05T13:08:27.179Z,1013.48
2017-07-05T13:09:37.155Z,1013.53
2017-07-05T13:10:47.053Z,1013.56
2017-07-05T13:11:57.349Z,1013.57
2017-07-05T13:13:07.322Z,1013.56
2017-07-05T13:14:17.604Z,1013.53
2017-07-05T13:15:27.587Z,1013.45
2017-07-05T13:16:38.111Z,1013.51
2017-07-05T13:17:48.385Z,1013.42
2017-07-05T13:18:58.667Z,1013.43
2017-07-05T13:20:08.957Z,1013.42
2017-07-05T13:21:19.237Z,1013.48
2017-07-05T13:22:29.763Z,1013.46
2017-07-05T13:23:39.703Z,1013.45
2017-07-05T13:24:49.972Z,1013.44
2017-07-05T13:25:59.945Z,1013.46
2017-07-05T13:27:10.243Z,1013.53
2017-07-05T13:28:20.760Z,1013.47
2017-07-05T13:29:30.717Z,1013.49
2017-07-05T13:30:40.688Z,1013.48
2017-07-05T13:31:50.656Z,1013.52
2017-07-05T13:33:00.308Z,1013.46
2017-07-05T13:34:10.522Z,1013.49
2017-07-05T13:35:20.822Z,1013.56
2017-07-05T13:36:31.123Z,1013.51
2017-07-05T13:37:41.085Z,1013.66
2017-07-05T13:38:51.047Z,1013.58
2017-07-05T13:40:01.267Z,1013.58
2017-07-05T13:41:11.248Z,1013.59
2017-07-05T13:42:21.546Z,1013.56
2017-07-05T13:43:31.514Z,1013.53
2017-07-05T13:44:41.788Z,1013.54
2017-07-05T13:45:52.015Z,1013.54
2017-07-05T13:47:02.293Z,1013.52
2017-07-05T13:48:12.262Z,1013.63
2017-07-05T13:49:22.226Z,1013.53
2017-07-05T13:50:32.522Z,1013.45
2017-07-05T13:51:42.821Z,1013.4
2017-07-05T13:52:53.096Z,1013.47
2017-07-05T13:54:02.414Z,1013.45
2017-07-05T13:55:12.364Z,1013.46
2017-07-05T13:56:22.626Z,1013.48
2017-07-05T13:57:32.527Z,1013.47
2017-07-05T13:58:42.490Z,1013.55
2017-07-05T13:59:52.835Z,1013.52
2017-07-05T14:01:02.804Z,1013.56
2017-07-05T14:02:12.120Z,1013.57
2017-07-05T14:03:22.640Z,1013.48
2017-07-05T14:04:32.602Z,1013.47
2017-07-05T14:05:42.620Z,1013.49
2017-07-05T14:06:52.264Z,1013.59
2017-07-05T14:08:02.227Z,1013.54
2017-07-05T14:09:12.768Z,1013.57
2017-07-05T14:10:22.732Z,1013.51
2017-07-05T14:11:33.007Z,1013.56
2017-07-05T14:12:42.973Z,1013.51
2017-07-05T14:13:53.228Z,1013.53
2017-07-05T14:15:03.756Z,1013.51